Terminal Aerodrome Forecast
Issued by NWS New Orleans/Baton Rouge, LA

Home | Current Version | Previous Version | Text Only | Print | Product List | Glossary On
Versions: 1 2 3 4 5 6 7 8 9 10 11 12 13 14 15 16 17 18 19 20 21 22 23 24 25 26 27 28 29 30 31 32 33 34 35 36 37
855
FTUS44 KLIX 190309 AAA
TAFNEW
TAF AMD
KNEW 190309Z 1903/1924 23013KT P6SM SKC
     FM190330 32024G31KT 6SM -SHRA SCT015 BKN040
     FM190415 33023G30KT P6SM BKN050
     FM190900 35022G29KT P6SM SCT090
     FM191600 36015KT P6SM SKC=

USA.gov is the U.S. government's official web portal to all federal, state and local government web resources and services.